createdAt,value
2022-09-13T00:02:15.772Z,96678.91
2022-09-13T00:04:43.765Z,96682.25
2022-09-13T00:07:10.388Z,96678.00
2022-09-13T00:09:37.641Z,96686.78
2022-09-13T00:12:04.641Z,96690.16
2022-09-13T00:14:31.367Z,96683.94
2022-09-13T00:16:58.571Z,96681.72
2022-09-13T00:19:25.368Z,96689.59
2022-09-13T00:21:52.024Z,96682.47
2022-09-13T00:24:18.774Z,96681.78
2022-09-13T00:26:45.831Z,96682.38
2022-09-13T00:29:12.729Z,96673.94
2022-09-13T00:31:39.431Z,96679.13
2022-09-13T00:34:06.174Z,96684.63
2022-09-13T00:36:32.781Z,96680.47
2022-09-13T00:39:02.580Z,96692.91
2022-09-13T00:41:30.088Z,96687.50
2022-09-13T00:43:59.178Z,96683.34
2022-09-13T00:46:44.675Z,96681.88
2022-09-13T00:49:24.931Z,96688.53
2022-09-13T00:51:56.434Z,96701.06
2022-09-13T00:54:24.810Z,96699.72
2022-09-13T00:56:54.736Z,96714.63
2022-09-13T00:59:31.983Z,96717.13
2022-09-13T01:01:58.833Z,96715.63
2022-09-13T01:04:27.235Z,96708.72
2022-09-13T01:06:58.553Z,96708.72
2022-09-13T01:09:25.755Z,96709.41
2022-09-13T01:12:04.590Z,96709.41
2022-09-13T01:14:32.726Z,96710.84
2022-09-13T01:16:59.467Z,96708.00
2022-09-13T01:19:26.171Z,96714.63
2022-09-13T01:22:44.305Z,96705.34
2022-09-13T01:25:11.050Z,96704.63
2022-09-13T01:28:01.938Z,96703.72
2022-09-13T01:30:55.271Z,96704.25
2022-09-13T01:33:37.096Z,96700.09
2022-09-13T01:36:34.443Z,96689.78
2022-09-13T01:39:05.144Z,96691.22
2022-09-13T01:41:57.420Z,96676.66
2022-09-13T01:44:45.687Z,96677.69
2022-09-13T01:47:28.129Z,96689.19
2022-09-13T01:50:07.569Z,96685.84
2022-09-13T01:52:45.078Z,96683.47
2022-09-13T01:55:23.742Z,96684.38
2022-09-13T01:58:17.972Z,96689.19
2022-09-13T02:01:11.513Z,96685.72
2022-09-13T02:03:46.214Z,96681.53
2022-09-13T02:06:17.483Z,96688.25
2022-09-13T02:08:47.721Z,96691.00
2022-09-13T02:11:17.341Z,96697.34
2022-09-13T02:13:50.540Z,96692.53
2022-09-13T02:16:22.636Z,96692.34
2022-09-13T02:18:53.623Z,96690.91
2022-09-13T02:21:28.266Z,96688.06
2022-09-13T02:24:00.714Z,96676.25
2022-09-13T02:26:28.821Z,96671.56
2022-09-13T02:28:58.550Z,96661.19
2022-09-13T02:31:29.809Z,96654.97
2022-09-13T02:34:03.848Z,96649.97
2022-09-13T02:36:34.991Z,96660.97
2022-09-13T02:39:07.775Z,96654.06
2022-09-13T02:41:57.794Z,96650.09
2022-09-13T02:44:37.570Z,96636.78
2022-09-13T02:47:23.000Z,96640.66
2022-09-13T02:50:03.772Z,96631.78
2022-09-13T02:52:33.691Z,96630.56
2022-09-13T02:55:16.910Z,96640.81
2022-09-13T02:58:05.161Z,96639.53
2022-09-13T03:00:31.966Z,96638.81
2022-09-13T03:03:03.017Z,96648.97
2022-09-13T03:05:29.863Z,96637.91
2022-09-13T03:07:56.688Z,96644.00
2022-09-13T03:10:23.519Z,96643.41
2022-09-13T03:13:24.175Z,96643.41
2022-09-13T03:16:21.776Z,96639.72
2022-09-13T03:19:01.471Z,96641.56
2022-09-13T03:21:28.115Z,96637.91
2022-09-13T03:24:19.548Z,96644.59
2022-09-13T03:26:52.235Z,96635.78
2022-09-13T03:29:31.734Z,96640.66
2022-09-13T03:32:03.911Z,96640.16
2022-09-13T03:34:38.273Z,96638.31
2022-09-13T03:37:10.516Z,96644.44
2022-09-13T03:39:43.241Z,96645.13
2022-09-13T03:42:27.187Z,96648.59
2022-09-13T03:44:55.863Z,96653.25
2022-09-13T03:47:25.760Z,96649.22
2022-09-13T03:49:53.046Z,96643.72
2022-09-13T03:52:19.910Z,96645.63
2022-09-13T03:54:46.666Z,96645.44
2022-09-13T03:57:14.233Z,96642.69
2022-09-13T03:59:49.999Z,96643.31
2022-09-13T04:02:18.003Z,96656.34
2022-09-13T04:04:45.732Z,96651.53
2022-09-13T04:07:18.761Z,96641.38
2022-09-13T04:09:46.096Z,96644.72
2022-09-13T04:12:15.182Z,96643.00
2022-09-13T04:14:43.911Z,96639.53
2022-09-13T04:17:12.125Z,96634.13
2022-09-13T04:19:39.034Z,96634.06
2022-09-13T04:22:05.807Z,96645.75
2022-09-13T04:24:32.517Z,96634.66
2022-09-13T04:26:59.331Z,96640.34
2022-09-13T04:29:27.137Z,96634.34
2022-09-13T04:31:54.973Z,96635.78
2022-09-13T04:34:25.113Z,96641.97
2022-09-13T04:36:52.962Z,96643.31
2022-09-13T04:39:20.632Z,96644.63
2022-09-13T04:41:48.314Z,96652.88
2022-09-13T04:44:16.374Z,96646.13
2022-09-13T04:46:43.614Z,96655.91
2022-09-13T04:49:11.470Z,96648.38
2022-09-13T04:51:38.143Z,96657.25
2022-09-13T04:54:05.470Z,96653.16
2022-09-13T04:56:32.385Z,96647.25
2022-09-13T04:58:59.085Z,96636.56
2022-09-13T05:01:27.901Z,96637.50
2022-09-13T05:03:55.481Z,96638.81
2022-09-13T05:06:22.895Z,96638.59
2022-09-13T05:08:55.283Z,96633.94
2022-09-13T05:11:23.113Z,96635.56
2022-09-13T05:13:53.054Z,96635.75
2022-09-13T05:16:19.930Z,96648.47
2022-09-13T05:18:46.701Z,96651.31
2022-09-13T05:21:14.083Z,96649.38
2022-09-13T05:23:40.840Z,96656.31
2022-09-13T05:26:08.589Z,96655.88
2022-09-13T05:28:36.529Z,96656.69
2022-09-13T05:31:08.962Z,96661.06
2022-09-13T05:33:37.906Z,96657.28
2022-09-13T05:36:06.264Z,96661.84
2022-09-13T05:38:33.374Z,96658.66
2022-09-13T05:41:02.163Z,96652.06
2022-09-13T05:43:32.855Z,96654.28
2022-09-13T05:46:03.893Z,96654.50
2022-09-13T05:48:30.814Z,96650.22
2022-09-13T05:50:58.753Z,96656.84
2022-09-13T05:53:25.725Z,96643.72
2022-09-13T05:55:52.365Z,96651.03
2022-09-13T05:58:19.065Z,96651.59
2022-09-13T06:00:45.772Z,96656.84
2022-09-13T06:03:12.660Z,96655.34
2022-09-13T06:05:39.406Z,96652.63
2022-09-13T06:08:06.199Z,96641.88
2022-09-13T06:10:33.617Z,96636.13
2022-09-13T06:13:00.306Z,96631.84
2022-09-13T06:15:27.112Z,96641.44
2022-09-13T06:17:53.862Z,96640.03
2022-09-13T06:20:20.589Z,96641.25
2022-09-13T06:22:48.537Z,96643.19
2022-09-13T06:25:16.534Z,96640.22
2022-09-13T06:27:43.193Z,96622.66
2022-09-13T06:30:13.065Z,96622.97
2022-09-13T06:32:40.004Z,96615.75
2022-09-13T06:35:07.342Z,96621.59
2022-09-13T06:37:34.334Z,96616.44
2022-09-13T06:40:01.237Z,96605.84
2022-09-13T06:42:28.136Z,96615.22
2022-09-13T06:44:54.819Z,96619.16
2022-09-13T06:47:21.525Z,96605.03
2022-09-13T06:49:48.189Z,96608.13
2022-09-13T06:52:14.900Z,96599.38
2022-09-13T06:54:41.615Z,96595.50
2022-09-13T06:57:08.778Z,96581.91
2022-09-13T06:59:35.537Z,96583.50
2022-09-13T07:02:02.480Z,96568.59
2022-09-13T07:04:31.985Z,96568.09
2022-09-13T07:06:59.955Z,96564.88
2022-09-13T07:09:26.650Z,96569.94
2022-09-13T07:11:55.114Z,96568.34
2022-09-13T07:14:24.309Z,96560.19
2022-09-13T07:16:51.858Z,96562.50
2022-09-13T07:19:26.596Z,96560.56
2022-09-13T07:21:54.643Z,96559.41
2022-09-13T07:24:21.809Z,96564.66
2022-09-13T07:26:49.135Z,96570.59
2022-09-13T07:29:19.242Z,96566.16
2022-09-13T07:31:49.279Z,96562.34
2022-09-13T07:34:19.065Z,96555.06
2022-09-13T07:36:47.306Z,96553.31
2022-09-13T07:39:20.277Z,96555.78
2022-09-13T07:41:49.683Z,96552.69
2022-09-13T07:44:16.407Z,96558.50
2022-09-13T07:46:45.996Z,96587.13
2022-09-13T07:49:16.603Z,96608.06
2022-09-13T07:51:44.250Z,96600.56
2022-09-13T07:54:16.125Z,96605.03
2022-09-13T07:56:43.309Z,96623.53
2022-09-13T07:59:15.125Z,96642.84
2022-09-13T08:01:43.950Z,96632.81
2022-09-13T08:04:13.150Z,96628.19
2022-09-13T08:06:40.865Z,96615.94
2022-09-13T08:09:08.886Z,96607.88
2022-09-13T08:11:38.545Z,96613.16
2022-09-13T08:14:06.292Z,96623.56
2022-09-13T08:16:33.959Z,96625.50
2022-09-13T08:19:13.500Z,96634.28
2022-09-13T11:57:37.265Z,96544.41
2022-09-13T12:00:19.346Z,96535.97
2022-09-13T12:03:16.250Z,96534.59
2022-09-13T12:05:48.518Z,96531.06
2022-09-13T12:08:20.598Z,96528.25
2022-09-13T12:10:55.532Z,96531.81
2022-09-13T12:13:25.607Z,96533.94
2022-09-13T12:16:08.652Z,96524.09
2022-09-13T12:18:43.344Z,96529.69
2022-09-13T12:21:19.355Z,96528.25
2022-09-13T12:24:01.528Z,96525.38
2022-09-13T12:26:39.589Z,96523.22
2022-09-13T12:29:26.481Z,96523.94
2022-09-13T12:31:57.501Z,96519.63
2022-09-13T12:34:28.048Z,96518.16
2022-09-13T12:37:12.215Z,96513.28
2022-09-13T12:39:41.920Z,96515.38
2022-09-13T12:42:27.114Z,96504.03
2022-09-13T12:45:03.885Z,96512.41
2022-09-13T12:48:04.262Z,96508.88
2022-09-13T12:50:57.375Z,96504.56
2022-09-13T12:53:37.478Z,96506.66
2022-09-13T12:56:23.201Z,96492.56
2022-09-13T12:59:20.781Z,96486.91
2022-09-13T13:01:50.336Z,96486.09
2022-09-13T13:04:18.295Z,96486.63
2022-09-13T13:06:54.922Z,96493.53
2022-09-13T13:09:52.999Z,96482.19
2022-09-13T13:12:39.918Z,96477.13
2022-09-13T13:15:15.787Z,96472.09
2022-09-13T13:17:45.859Z,96472.66
2022-09-13T13:20:50.035Z,96468.22
2022-09-13T13:23:24.310Z,96465.91
2022-09-13T13:26:01.687Z,96455.97
2022-09-13T13:28:44.314Z,96447.53
2022-09-13T13:31:35.337Z,96441.28
2022-09-13T13:34:04.110Z,96439.19
2022-09-13T13:36:34.776Z,96440.06
2022-09-13T13:39:02.242Z,96437.50
2022-09-13T13:41:40.714Z,96432.84
2022-09-13T13:44:18.124Z,96428.78
2022-09-13T13:46:52.285Z,96431.09
2022-09-13T13:49:52.674Z,96422.91
2022-09-13T13:52:22.493Z,96421.69
2022-09-13T13:54:55.610Z,96420.31
2022-09-13T13:57:31.152Z,96418.34
2022-09-13T14:00:08.975Z,96421.94
2022-09-13T14:02:45.408Z,96419.19
2022-09-13T14:05:30.947Z,96413.59
2022-09-13T14:08:16.743Z,96405.28
2022-09-13T14:10:46.296Z,96403.22
2022-09-13T14:13:37.414Z,96405.38
2022-09-13T14:16:29.417Z,96403.34
2022-09-13T14:19:07.410Z,96394.16
2022-09-13T14:21:34.290Z,96403.88
2022-09-13T14:24:23.548Z,96410.13
2022-09-13T14:26:52.810Z,96408.59
2022-09-13T14:29:21.940Z,96407.06
2022-09-13T14:32:11.275Z,96407.63
2022-09-13T14:34:39.127Z,96388.72
2022-09-13T14:37:17.055Z,96389.63
2022-09-13T14:40:14.565Z,96396.72
2022-09-13T14:42:43.949Z,96388.25
2022-09-13T14:45:14.970Z,96385.91
2022-09-13T14:47:53.921Z,96375.81
2022-09-13T14:50:30.358Z,96367.78
2022-09-13T14:53:01.008Z,96363.28
2022-09-13T14:55:31.591Z,96361.66
2022-09-13T14:58:04.656Z,96356.66
2022-09-13T15:00:35.754Z,96350.97
2022-09-13T15:03:05.512Z,96348.13
2022-09-13T15:05:34.073Z,96348.13
2022-09-13T15:08:00.795Z,96348.91
2022-09-13T15:10:32.199Z,96347.50
2022-09-13T15:12:58.906Z,96340.25
2022-09-13T15:15:26.269Z,96341.44
2022-09-13T15:17:59.607Z,96337.13
2022-09-13T15:20:29.934Z,96333.56
2022-09-13T15:22:57.129Z,96325.06
2022-09-13T15:25:29.459Z,96331.66
2022-09-13T15:27:57.206Z,96329.41
2022-09-13T15:30:26.841Z,96339.44
2022-09-13T15:33:09.250Z,96339.31
2022-09-13T15:35:41.286Z,96333.69
2022-09-13T15:38:28.404Z,96320.75
2022-09-13T15:41:17.152Z,96313.63
2022-09-13T15:43:44.294Z,96309.84
2022-09-13T15:46:15.316Z,96306.44
2022-09-13T15:48:49.179Z,96303.88
2022-09-13T15:51:15.964Z,96295.59
2022-09-13T15:53:45.740Z,96291.72
2022-09-13T15:56:17.448Z,96280.50
2022-09-13T15:58:44.348Z,96280.19
2022-09-13T16:01:15.619Z,96275.66
2022-09-13T16:03:43.009Z,96274.56
2022-09-13T16:06:10.616Z,96274.84
2022-09-13T16:08:38.062Z,96270.81
2022-09-13T16:11:05.875Z,96280.84
2022-09-13T16:13:32.947Z,96285.81
2022-09-13T16:16:00.117Z,96276.81
2022-09-13T16:18:27.018Z,96274.81
2022-09-13T16:20:54.157Z,96276.94
2022-09-13T16:23:21.227Z,96274.22
2022-09-13T16:25:49.352Z,96271.44
2022-09-13T16:28:20.947Z,96277.06
2022-09-13T16:30:49.520Z,96283.38
2022-09-13T16:33:16.348Z,96293.88
2022-09-13T16:35:43.020Z,96290.34
2022-09-13T16:38:10.857Z,96299.44
2022-09-13T16:40:42.322Z,96300.13
2022-09-13T16:43:09.630Z,96295.25
2022-09-13T16:45:40.227Z,96293.84
2022-09-13T16:48:07.854Z,96300.13
2022-09-13T16:50:36.089Z,96291.72
2022-09-13T16:53:02.928Z,96292.38
2022-09-13T16:55:30.478Z,96299.31
2022-09-13T16:57:57.314Z,96298.63
2022-09-13T17:00:28.406Z,96295.81
2022-09-13T17:02:56.715Z,96299.97
2022-09-13T17:05:24.421Z,96293.69
2022-09-13T17:07:51.931Z,96290.19
2022-09-13T17:10:19.094Z,96295.06
2022-09-13T17:12:45.794Z,96303.41
2022-09-13T17:15:12.582Z,96295.72
2022-09-13T17:17:39.292Z,96295.00
2022-09-13T17:20:12.278Z,96291.44
2022-09-13T17:22:39.633Z,96294.84
2022-09-13T17:25:10.116Z,96292.69
2022-09-13T17:27:36.849Z,96291.91
2022-09-13T17:30:05.163Z,96301.66
2022-09-13T17:32:32.014Z,96291.19
2022-09-13T17:34:59.240Z,96289.81
2022-09-13T17:37:26.080Z,96295.41
2022-09-13T17:39:52.848Z,96287.00
2022-09-13T17:42:23.189Z,96284.88
2022-09-13T17:44:50.738Z,96298.09
2022-09-13T17:47:17.390Z,96300.09
2022-09-13T17:49:45.573Z,96300.72
2022-09-13T17:52:12.489Z,96299.97
2022-09-13T17:54:39.134Z,96308.91
2022-09-13T17:57:06.744Z,96306.69
2022-09-13T17:59:34.304Z,96312.81
2022-09-13T18:02:01.204Z,96319.69
2022-09-13T18:04:28.226Z,96313.34
2022-09-13T18:06:55.298Z,96313.25
2022-09-13T18:09:22.603Z,96318.69
2022-09-13T18:11:50.587Z,96319.97
2022-09-13T18:14:18.622Z,96328.91
2022-09-13T18:16:46.635Z,96339.34
2022-09-13T18:19:13.695Z,96337.31
2022-09-13T18:21:40.641Z,96342.25
2022-09-13T18:24:07.545Z,96334.66
2022-09-13T18:26:34.906Z,96336.06
2022-09-13T18:29:04.587Z,96334.72
2022-09-13T18:31:32.779Z,96338.19
2022-09-13T18:34:01.801Z,96333.91
2022-09-13T18:36:29.546Z,96335.28
2022-09-13T18:38:56.943Z,96332.50
2022-09-13T18:41:30.522Z,96324.22
2022-09-13T18:43:58.606Z,96317.25
2022-09-13T18:46:27.950Z,96315.75
2022-09-13T18:48:57.646Z,96319.97
2022-09-13T18:53:59.640Z,96329.69
2022-09-13T18:56:27.263Z,96330.38
2022-09-13T18:58:54.949Z,96324.03
2022-09-13T19:01:27.377Z,96329.53
2022-09-13T19:03:59.935Z,96328.69
2022-09-13T19:06:37.330Z,96325.06
2022-09-13T19:09:05.538Z,96323.69
2022-09-13T19:11:52.575Z,96321.59
2022-09-13T19:14:24.662Z,96323.00
2022-09-13T19:16:53.340Z,96325.09
2022-09-13T19:19:20.652Z,96328.63
2022-09-13T19:21:47.510Z,96328.69
2022-09-13T19:24:19.091Z,96324.53
2022-09-13T19:26:48.473Z,96325.88
2022-09-13T19:29:17.891Z,96331.41
2022-09-13T19:31:48.404Z,96330.03
2022-09-13T19:34:17.542Z,96341.97
2022-09-13T19:36:45.005Z,96342.00
2022-09-13T19:39:12.237Z,96344.16
2022-09-13T19:41:39.644Z,96344.19
2022-09-13T19:44:07.195Z,96336.56
2022-09-13T19:46:39.254Z,96339.28
2022-09-13T19:49:08.171Z,96337.06
2022-09-13T19:51:37.526Z,96339.78
2022-09-13T19:54:05.570Z,96336.34
2022-09-13T19:56:34.968Z,96337.06
2022-09-13T19:59:02.233Z,96333.66
2022-09-13T20:01:31.805Z,96335.72
2022-09-13T20:04:00.687Z,96326.03
2022-09-13T20:06:29.371Z,96335.09
2022-09-13T20:09:00.282Z,96333.03
2022-09-13T20:11:28.991Z,96312.84
2022-09-13T20:13:59.132Z,96309.38
2022-09-13T20:16:32.182Z,96309.38
2022-09-13T20:18:59.014Z,96305.88
2022-09-13T20:21:27.482Z,96310.75
2022-09-13T20:23:56.123Z,96309.38
2022-09-13T20:26:25.627Z,96303.81
2022-09-13T20:29:03.123Z,96306.56
2022-09-13T20:31:31.106Z,96299.59
2022-09-13T20:34:00.516Z,96297.47
2022-09-13T20:36:29.103Z,96303.72
2022-09-13T20:39:02.309Z,96296.06
2022-09-13T20:41:31.389Z,96302.97
2022-09-13T20:43:59.851Z,96301.44
2022-09-13T20:46:27.258Z,96305.53
2022-09-13T20:48:54.048Z,96295.81
2022-09-13T20:51:23.319Z,96305.59
2022-09-13T20:53:58.070Z,96308.34
2022-09-13T20:56:25.211Z,96311.03
2022-09-13T20:59:01.972Z,96315.81
2022-09-13T21:01:31.204Z,96320.75
2022-09-13T21:03:58.808Z,96318.03
2022-09-13T21:06:28.750Z,96310.34
2022-09-13T21:09:03.158Z,96310.94
2022-09-13T21:11:35.009Z,96313.03
2022-09-13T21:14:04.471Z,96303.28
2022-09-13T21:16:35.017Z,96308.13
2022-09-13T21:19:02.561Z,96307.38
2022-09-13T21:21:31.485Z,96304.53
2022-09-13T21:24:00.518Z,96298.84
2022-09-13T21:26:28.715Z,96295.97
2022-09-13T21:28:56.103Z,96302.19
2022-09-13T21:31:28.800Z,96299.41
2022-09-13T21:34:06.106Z,96301.44
2022-09-13T21:36:37.372Z,96296.66
2022-09-13T21:39:04.938Z,96290.47
2022-09-13T21:41:31.899Z,96289.75
2022-09-13T21:43:58.582Z,96286.22
2022-09-13T21:46:27.722Z,96300.78
2022-09-13T21:48:56.085Z,96296.59
2022-09-13T21:51:28.182Z,96291.00
2022-09-13T21:53:58.997Z,96295.97
2022-09-13T21:56:27.727Z,96289.03
2022-09-13T21:58:58.333Z,96288.41
2022-09-13T22:01:27.171Z,96280.13
2022-09-13T22:03:54.410Z,96275.94
2022-09-13T22:06:22.286Z,96278.03
2022-09-13T22:08:51.174Z,96273.84
2022-09-13T22:11:20.520Z,96269.00
2022-09-13T22:13:47.727Z,96266.91
2022-09-13T22:16:21.495Z,96266.13
2022-09-13T22:18:50.366Z,96261.91
2022-09-13T22:21:19.797Z,96256.31
2022-09-13T22:23:46.847Z,96255.59
2022-09-13T22:26:22.622Z,96252.72
2022-09-13T22:28:49.439Z,96245.69
2022-09-13T22:31:18.795Z,96252.63
2022-09-13T22:33:46.203Z,96258.84
2022-09-13T22:36:14.718Z,96250.50
2022-09-13T22:38:43.041Z,96252.63
2022-09-13T22:41:15.419Z,96247.84
2022-09-13T22:43:42.888Z,96252.03
2022-09-13T22:46:12.475Z,96247.88
2022-09-13T22:48:40.149Z,96246.47
2022-09-13T22:51:08.315Z,96250.56
2022-09-13T22:53:36.987Z,96251.91
2022-09-13T22:56:14.697Z,96246.25
2022-09-13T22:58:42.261Z,96242.72
2022-09-13T23:01:17.270Z,96232.25
2022-09-13T23:03:45.395Z,96230.28
2022-09-13T23:06:13.735Z,96237.28
2022-09-13T23:08:40.780Z,96247.00
2022-09-13T23:11:21.334Z,96249.06
2022-09-13T23:13:50.251Z,96248.41
2022-09-13T23:16:22.414Z,96251.84
2022-09-13T23:18:49.475Z,96248.41
2022-09-13T23:21:20.843Z,96231.78
2022-09-13T23:23:48.036Z,96242.16
2022-09-13T23:26:17.626Z,96237.28
2022-09-13T23:28:45.827Z,96230.38
2022-09-13T23:31:18.445Z,96235.91
2022-09-13T23:33:47.164Z,96239.41
2022-09-13T23:36:15.190Z,96237.44
2022-09-13T23:38:45.812Z,96243.03
2022-09-13T23:41:13.046Z,96240.97
2022-09-13T23:43:39.747Z,96240.31
2022-09-13T23:46:06.717Z,96242.44
2022-09-13T23:48:34.869Z,96241.72
2022-09-13T23:51:04.099Z,96246.59
2022-09-13T23:53:31.428Z,96266.09
2022-09-13T23:55:58.390Z,96255.72
2022-09-13T23:58:25.390Z,96266.84
